sensor_id;sensor_type;location;lat;lon;timestamp;temperature;humidity
17887;DHT22;9069;52.044;7.472;2023-05-07T00:01:45;18.70;95.00
17887;DHT22;9069;52.044;7.472;2023-05-07T00:04:11;18.70;95.10
17887;DHT22;9069;52.044;7.472;2023-05-07T00:06:40;18.80;95.20
17887;DHT22;9069;52.044;7.472;2023-05-07T00:09:06;18.70;95.30
17887;DHT22;9069;52.044;7.472;2023-05-07T00:11:33;18.70;95.30
17887;DHT22;9069;52.044;7.472;2023-05-07T00:14:02;18.60;95.20
17887;DHT22;9069;52.044;7.472;2023-05-07T00:16:29;18.60;95.30
17887;DHT22;9069;52.044;7.472;2023-05-07T00:18:56;18.60;95.40
17887;DHT22;9069;52.044;7.472;2023-05-07T00:21:23;18.60;95.60
17887;DHT22;9069;52.044;7.472;2023-05-07T00:23:53;18.60;95.60
17887;DHT22;9069;52.044;7.472;2023-05-07T00:26:20;18.60;95.70
17887;DHT22;9069;52.044;7.472;2023-05-07T00:28:49;18.60;95.70
17887;DHT22;9069;52.044;7.472;2023-05-07T00:31:15;18.60;95.60
17887;DHT22;9069;52.044;7.472;2023-05-07T00:33:42;18.60;95.60
17887;DHT22;9069;52.044;7.472;2023-05-07T00:36:09;18.60;95.70
17887;DHT22;9069;52.044;7.472;2023-05-07T00:38:36;18.60;95.70
17887;DHT22;9069;52.044;7.472;2023-05-07T00:41:03;18.60;95.60
17887;DHT22;9069;52.044;7.472;2023-05-07T00:43:29;18.60;95.60
17887;DHT22;9069;52.044;7.472;2023-05-07T00:45:56;18.60;95.60
17887;DHT22;9069;52.044;7.472;2023-05-07T00:48:23;18.60;95.60
17887;DHT22;9069;52.044;7.472;2023-05-07T00:50:51;18.60;95.50
17887;DHT22;9069;52.044;7.472;2023-05-07T00:53:18;18.60;95.40
17887;DHT22;9069;52.044;7.472;2023-05-07T00:55:45;18.60;95.50
17887;DHT22;9069;52.044;7.472;2023-05-07T00:58:12;18.50;95.40
17887;DHT22;9069;52.044;7.472;2023-05-07T01:00:39;18.50;95.40
17887;DHT22;9069;52.044;7.472;2023-05-07T01:03:05;18.50;95.40
17887;DHT22;9069;52.044;7.472;2023-05-07T01:05:33;18.50;95.40
17887;DHT22;9069;52.044;7.472;2023-05-07T01:08:01;18.50;95.30
17887;DHT22;9069;52.044;7.472;2023-05-07T01:10:28;18.40;95.40
17887;DHT22;9069;52.044;7.472;2023-05-07T01:12:58;18.40;95.30
17887;DHT22;9069;52.044;7.472;2023-05-07T01:15:25;18.40;95.40
17887;DHT22;9069;52.044;7.472;2023-05-07T01:17:52;18.30;95.40
17887;DHT22;9069;52.044;7.472;2023-05-07T01:20:28;18.30;95.30
17887;DHT22;9069;52.044;7.472;2023-05-07T01:22:57;18.20;95.30
17887;DHT22;9069;52.044;7.472;2023-05-07T01:25:24;18.20;95.40
17887;DHT22;9069;52.044;7.472;2023-05-07T01:27:54;18.20;95.40
17887;DHT22;9069;52.044;7.472;2023-05-07T01:30:26;18.20;95.40
17887;DHT22;9069;52.044;7.472;2023-05-07T01:33:01;18.10;95.50
17887;DHT22;9069;52.044;7.472;2023-05-07T01:35:38;18.10;95.70
17887;DHT22;9069;52.044;7.472;2023-05-07T01:38:05;18.10;95.70
17887;DHT22;9069;52.044;7.472;2023-05-07T01:40:33;18.00;95.60
17887;DHT22;9069;52.044;7.472;2023-05-07T01:43:05;18.00;95.60
17887;DHT22;9069;52.044;7.472;2023-05-07T01:45:34;17.90;95.70
17887;DHT22;9069;52.044;7.472;2023-05-07T01:48:02;17.90;95.60
17887;DHT22;9069;52.044;7.472;2023-05-07T01:50:30;17.90;95.60
17887;DHT22;9069;52.044;7.472;2023-05-07T01:52:58;17.80;95.70
17887;DHT22;9069;52.044;7.472;2023-05-07T01:55:24;17.80;95.60
17887;DHT22;9069;52.044;7.472;2023-05-07T01:57:51;17.70;95.70
17887;DHT22;9069;52.044;7.472;2023-05-07T02:00:18;17.70;95.70
17887;DHT22;9069;52.044;7.472;2023-05-07T02:02:45;17.70;95.80
17887;DHT22;9069;52.044;7.472;2023-05-07T02:05:24;17.60;95.80
17887;DHT22;9069;52.044;7.472;2023-05-07T02:08:08;17.60;95.80
17887;DHT22;9069;52.044;7.472;2023-05-07T02:10:36;17.50;95.90
17887;DHT22;9069;52.044;7.472;2023-05-07T02:13:05;17.50;95.90
17887;DHT22;9069;52.044;7.472;2023-05-07T02:15:32;17.40;95.90
17887;DHT22;9069;52.044;7.472;2023-05-07T02:18:05;17.40;96.00
17887;DHT22;9069;52.044;7.472;2023-05-07T02:20:36;17.40;96.10
17887;DHT22;9069;52.044;7.472;2023-05-07T02:23:03;17.30;96.10
17887;DHT22;9069;52.044;7.472;2023-05-07T02:25:30;17.30;96.20
17887;DHT22;9069;52.044;7.472;2023-05-07T02:27:58;17.20;96.20
17887;DHT22;9069;52.044;7.472;2023-05-07T02:30:38;17.20;96.30
17887;DHT22;9069;52.044;7.472;2023-05-07T02:33:05;17.10;96.30
17887;DHT22;9069;52.044;7.472;2023-05-07T02:35:32;17.10;96.40
17887;DHT22;9069;52.044;7.472;2023-05-07T02:37:59;17.10;96.50
17887;DHT22;9069;52.044;7.472;2023-05-07T02:40:26;17.00;96.70
17887;DHT22;9069;52.044;7.472;2023-05-07T02:42:53;17.00;96.90
17887;DHT22;9069;52.044;7.472;2023-05-07T02:45:20;17.00;97.00
17887;DHT22;9069;52.044;7.472;2023-05-07T02:47:49;16.90;97.00
17887;DHT22;9069;52.044;7.472;2023-05-07T02:50:15;16.90;97.10
17887;DHT22;9069;52.044;7.472;2023-05-07T02:52:42;16.80;97.20
17887;DHT22;9069;52.044;7.472;2023-05-07T02:55:09;16.80;97.30
17887;DHT22;9069;52.044;7.472;2023-05-07T02:57:37;16.80;97.40
17887;DHT22;9069;52.044;7.472;2023-05-07T03:00:15;16.70;97.40
17887;DHT22;9069;52.044;7.472;2023-05-07T03:02:50;16.70;97.60
17887;DHT22;9069;52.044;7.472;2023-05-07T03:05:17;16.70;97.50
17887;DHT22;9069;52.044;7.472;2023-05-07T03:07:44;16.70;97.60
17887;DHT22;9069;52.044;7.472;2023-05-07T03:10:13;16.60;97.60
17887;DHT22;9069;52.044;7.472;2023-05-07T03:12:40;16.60;97.70
17887;DHT22;9069;52.044;7.472;2023-05-07T03:15:09;16.50;97.80
17887;DHT22;9069;52.044;7.472;2023-05-07T03:17:37;16.50;97.90
17887;DHT22;9069;52.044;7.472;2023-05-07T03:20:04;16.50;97.90
17887;DHT22;9069;52.044;7.472;2023-05-07T03:22:32;16.40;98.00
17887;DHT22;9069;52.044;7.472;2023-05-07T03:24:58;16.40;98.00
17887;DHT22;9069;52.044;7.472;2023-05-07T03:27:26;16.40;98.10
17887;DHT22;9069;52.044;7.472;2023-05-07T03:29:53;16.40;98.20
17887;DHT22;9069;52.044;7.472;2023-05-07T03:32:20;16.40;98.20
17887;DHT22;9069;52.044;7.472;2023-05-07T03:34:47;16.30;98.20
17887;DHT22;9069;52.044;7.472;2023-05-07T03:37:14;16.30;98.20
17887;DHT22;9069;52.044;7.472;2023-05-07T03:39:42;16.30;98.30
17887;DHT22;9069;52.044;7.472;2023-05-07T03:42:09;16.30;98.30
17887;DHT22;9069;52.044;7.472;2023-05-07T03:44:37;16.30;98.40
17887;DHT22;9069;52.044;7.472;2023-05-07T03:47:04;16.30;98.40
17887;DHT22;9069;52.044;7.472;2023-05-07T03:49:31;16.30;98.50
17887;DHT22;9069;52.044;7.472;2023-05-07T03:51:59;16.30;98.50
17887;DHT22;9069;52.044;7.472;2023-05-07T03:54:26;16.20;98.40
17887;DHT22;9069;52.044;7.472;2023-05-07T03:56:53;16.20;98.50
17887;DHT22;9069;52.044;7.472;2023-05-07T03:59:20;16.20;98.60
17887;DHT22;9069;52.044;7.472;2023-05-07T04:01:47;16.20;98.60
17887;DHT22;9069;52.044;7.472;2023-05-07T04:04:17;16.20;98.60
17887;DHT22;9069;52.044;7.472;2023-05-07T04:06:44;16.20;98.60
17887;DHT22;9069;52.044;7.472;2023-05-07T04:09:12;16.20;98.60
17887;DHT22;9069;52.044;7.472;2023-05-07T04:11:39;16.10;98.70
17887;DHT22;9069;52.044;7.472;2023-05-07T04:14:08;16.10;98.60
17887;DHT22;9069;52.044;7.472;2023-05-07T04:16:36;16.10;98.70
17887;DHT22;9069;52.044;7.472;2023-05-07T04:19:03;16.10;98.70
17887;DHT22;9069;52.044;7.472;2023-05-07T04:21:30;16.10;98.70
17887;DHT22;9069;52.044;7.472;2023-05-07T04:23:58;16.10;98.80
17887;DHT22;9069;52.044;7.472;2023-05-07T04:26:25;16.10;98.80
17887;DHT22;9069;52.044;7.472;2023-05-07T04:28:51;16.10;98.90
17887;DHT22;9069;52.044;7.472;2023-05-07T04:31:18;16.10;98.90
17887;DHT22;9069;52.044;7.472;2023-05-07T04:33:50;16.10;98.90
17887;DHT22;9069;52.044;7.472;2023-05-07T04:36:18;16.10;98.90
17887;DHT22;9069;52.044;7.472;2023-05-07T04:38:57;16.00;98.90
17887;DHT22;9069;52.044;7.472;2023-05-07T04:41:24;16.00;98.90
17887;DHT22;9069;52.044;7.472;2023-05-07T04:43:51;16.00;99.00
17887;DHT22;9069;52.044;7.472;2023-05-07T04:46:21;16.10;99.10
17887;DHT22;9069;52.044;7.472;2023-05-07T04:48:49;16.00;99.10
17887;DHT22;9069;52.044;7.472;2023-05-07T04:51:15;16.00;99.10
17887;DHT22;9069;52.044;7.472;2023-05-07T04:53:42;16.10;99.20
17887;DHT22;9069;52.044;7.472;2023-05-07T04:56:09;16.00;99.10
17887;DHT22;9069;52.044;7.472;2023-05-07T04:58:42;16.10;99.10
17887;DHT22;9069;52.044;7.472;2023-05-07T05:01:09;16.10;99.10
17887;DHT22;9069;52.044;7.472;2023-05-07T05:03:37;16.10;99.10
17887;DHT22;9069;52.044;7.472;2023-05-07T05:06:06;16.20;99.00
17887;DHT22;9069;52.044;7.472;2023-05-07T05:08:34;16.20;99.20
17887;DHT22;9069;52.044;7.472;2023-05-07T05:11:02;16.20;98.80
17887;DHT22;9069;52.044;7.472;2023-05-07T05:13:31;16.20;98.80
17887;DHT22;9069;52.044;7.472;2023-05-07T05:16:00;16.20;98.70
17887;DHT22;9069;52.044;7.472;2023-05-07T05:18:29;16.20;98.70
17887;DHT22;9069;52.044;7.472;2023-05-07T05:20:56;16.30;99.10
17887;DHT22;9069;52.044;7.472;2023-05-07T05:23:23;16.30;98.70
17887;DHT22;9069;52.044;7.472;2023-05-07T05:25:50;16.30;98.80
17887;DHT22;9069;52.044;7.472;2023-05-07T05:28:22;16.30;98.80
17887;DHT22;9069;52.044;7.472;2023-05-07T05:30:48;16.40;98.80
17887;DHT22;9069;52.044;7.472;2023-05-07T05:33:16;16.40;98.80
17887;DHT22;9069;52.044;7.472;2023-05-07T05:35:43;16.40;98.70
17887;DHT22;9069;52.044;7.472;2023-05-07T05:38:11;16.50;98.70
17887;DHT22;9069;52.044;7.472;2023-05-07T05:40:39;16.50;98.70
17887;DHT22;9069;52.044;7.472;2023-05-07T05:43:06;16.60;98.70
17887;DHT22;9069;52.044;7.472;2023-05-07T05:45:34;16.60;98.60
17887;DHT22;9069;52.044;7.472;2023-05-07T05:48:00;16.70;98.50
17887;DHT22;9069;52.044;7.472;2023-05-07T05:50:28;16.70;98.40
17887;DHT22;9069;52.044;7.472;2023-05-07T05:52:55;16.70;98.30
17887;DHT22;9069;52.044;7.472;2023-05-07T05:55:24;16.80;98.40
17887;DHT22;9069;52.044;7.472;2023-05-07T05:57:51;16.80;98.40
17887;DHT22;9069;52.044;7.472;2023-05-07T06:00:19;16.90;98.30
17887;DHT22;9069;52.044;7.472;2023-05-07T06:02:54;16.90;98.30
17887;DHT22;9069;52.044;7.472;2023-05-07T06:05:23;16.90;98.20
17887;DHT22;9069;52.044;7.472;2023-05-07T06:07:53;16.90;98.10
17887;DHT22;9069;52.044;7.472;2023-05-07T06:10:20;17.00;98.10
17887;DHT22;9069;52.044;7.472;2023-05-07T06:12:47;17.00;98.00
17887;DHT22;9069;52.044;7.472;2023-05-07T06:15:15;17.00;97.90
17887;DHT22;9069;52.044;7.472;2023-05-07T06:17:42;17.00;97.90
17887;DHT22;9069;52.044;7.472;2023-05-07T06:20:10;17.10;97.90
17887;DHT22;9069;52.044;7.472;2023-05-07T06:22:38;17.10;97.90
17887;DHT22;9069;52.044;7.472;2023-05-07T06:25:05;17.10;97.80
17887;DHT22;9069;52.044;7.472;2023-05-07T06:27:32;17.10;97.80
17887;DHT22;9069;52.044;7.472;2023-05-07T06:29:59;17.20;97.80
17887;DHT22;9069;52.044;7.472;2023-05-07T06:32:26;17.20;97.80
17887;DHT22;9069;52.044;7.472;2023-05-07T06:34:53;17.20;97.70
17887;DHT22;9069;52.044;7.472;2023-05-07T06:37:20;17.20;97.70
17887;DHT22;9069;52.044;7.472;2023-05-07T06:40:00;17.30;97.80
17887;DHT22;9069;52.044;7.472;2023-05-07T06:42:29;17.30;97.70
17887;DHT22;9069;52.044;7.472;2023-05-07T06:44:59;17.30;97.70
17887;DHT22;9069;52.044;7.472;2023-05-07T06:47:29;17.40;97.70
17887;DHT22;9069;52.044;7.472;2023-05-07T06:49:57;17.40;97.70
17887;DHT22;9069;52.044;7.472;2023-05-07T06:52:28;17.40;97.70
17887;DHT22;9069;52.044;7.472;2023-05-07T06:54:55;17.50;97.70
17887;DHT22;9069;52.044;7.472;2023-05-07T06:57:24;17.50;97.80
17887;DHT22;9069;52.044;7.472;2023-05-07T06:59:51;17.50;98.00
17887;DHT22;9069;52.044;7.472;2023-05-07T07:02:18;17.70;98.10
17887;DHT22;9069;52.044;7.472;2023-05-07T07:04:48;17.80;98.00
17887;DHT22;9069;52.044;7.472;2023-05-07T07:07:14;17.90;97.90
17887;DHT22;9069;52.044;7.472;2023-05-07T07:09:43;18.00;97.80
17887;DHT22;9069;52.044;7.472;2023-05-07T07:12:13;18.10;97.70
17887;DHT22;9069;52.044;7.472;2023-05-07T07:14:40;18.30;97.70
17887;DHT22;9069;52.044;7.472;2023-05-07T07:17:07;18.40;97.50
17887;DHT22;9069;52.044;7.472;2023-05-07T07:19:35;18.50;97.40
17887;DHT22;9069;52.044;7.472;2023-05-07T07:22:03;18.60;97.10
17887;DHT22;9069;52.044;7.472;2023-05-07T07:24:30;18.80;97.00
17887;DHT22;9069;52.044;7.472;2023-05-07T07:27:00;18.90;96.80
17887;DHT22;9069;52.044;7.472;2023-05-07T07:29:27;19.00;96.70
17887;DHT22;9069;52.044;7.472;2023-05-07T07:31:54;19.20;96.70
17887;DHT22;9069;52.044;7.472;2023-05-07T07:34:22;19.30;96.60
17887;DHT22;9069;52.044;7.472;2023-05-07T07:36:49;19.40;96.30
17887;DHT22;9069;52.044;7.472;2023-05-07T07:39:17;19.50;96.30
17887;DHT22;9069;52.044;7.472;2023-05-07T07:41:46;19.60;95.70
17887;DHT22;9069;52.044;7.472;2023-05-07T07:44:14;19.70;95.50
17887;DHT22;9069;52.044;7.472;2023-05-07T07:46:46;19.70;95.00
17887;DHT22;9069;52.044;7.472;2023-05-07T07:49:13;19.80;94.80
17887;DHT22;9069;52.044;7.472;2023-05-07T07:51:40;19.80;94.70
17887;DHT22;9069;52.044;7.472;2023-05-07T07:54:09;19.80;94.60
17887;DHT22;9069;52.044;7.472;2023-05-07T07:56:36;19.80;94.40
17887;DHT22;9069;52.044;7.472;2023-05-07T07:59:04;19.90;94.30
17887;DHT22;9069;52.044;7.472;2023-05-07T08:01:32;19.90;94.20
17887;DHT22;9069;52.044;7.472;2023-05-07T08:04:00;19.90;94.10
17887;DHT22;9069;52.044;7.472;2023-05-07T08:06:29;19.90;94.00
17887;DHT22;9069;52.044;7.472;2023-05-07T08:08:56;19.90;93.90
17887;DHT22;9069;52.044;7.472;2023-05-07T08:11:23;20.00;93.90
17887;DHT22;9069;52.044;7.472;2023-05-07T08:13:51;20.00;93.90
17887;DHT22;9069;52.044;7.472;2023-05-07T08:16:18;20.00;94.00
17887;DHT22;9069;52.044;7.472;2023-05-07T08:18:47;20.00;93.90
17887;DHT22;9069;52.044;7.472;2023-05-07T08:21:13;20.00;93.80
17887;DHT22;9069;52.044;7.472;2023-05-07T08:23:40;20.10;93.80
17887;DHT22;9069;52.044;7.472;2023-05-07T08:26:08;20.10;93.80
17887;DHT22;9069;52.044;7.472;2023-05-07T08:28:36;20.20;93.60
17887;DHT22;9069;52.044;7.472;2023-05-07T08:31:03;20.20;93.40
17887;DHT22;9069;52.044;7.472;2023-05-07T08:33:34;20.30;93.40
17887;DHT22;9069;52.044;7.472;2023-05-07T08:36:01;20.30;93.30
17887;DHT22;9069;52.044;7.472;2023-05-07T08:38:28;20.40;93.00
17887;DHT22;9069;52.044;7.472;2023-05-07T08:40:55;20.40;92.90
17887;DHT22;9069;52.044;7.472;2023-05-07T08:43:24;20.40;92.90
17887;DHT22;9069;52.044;7.472;2023-05-07T08:45:53;20.50;92.90
17887;DHT22;9069;52.044;7.472;2023-05-07T08:48:27;20.50;92.70
17887;DHT22;9069;52.044;7.472;2023-05-07T08:51:04;20.50;92.50
17887;DHT22;9069;52.044;7.472;2023-05-07T08:53:32;20.60;92.70
17887;DHT22;9069;52.044;7.472;2023-05-07T08:55:59;20.60;92.40
17887;DHT22;9069;52.044;7.472;2023-05-07T08:58:28;20.70;92.40
17887;DHT22;9069;52.044;7.472;2023-05-07T09:00:55;20.70;92.40
17887;DHT22;9069;52.044;7.472;2023-05-07T09:03:23;20.70;92.30
17887;DHT22;9069;52.044;7.472;2023-05-07T09:05:52;20.80;92.40
17887;DHT22;9069;52.044;7.472;2023-05-07T09:08:24;20.80;92.30
17887;DHT22;9069;52.044;7.472;2023-05-07T09:10:52;20.90;92.40
17887;DHT22;9069;52.044;7.472;2023-05-07T09:13:20;21.00;92.90
17887;DHT22;9069;52.044;7.472;2023-05-07T09:15:47;21.20;92.80
17887;DHT22;9069;52.044;7.472;2023-05-07T09:18:14;21.20;92.30
17887;DHT22;9069;52.044;7.472;2023-05-07T09:20:43;21.30;92.20
17887;DHT22;9069;52.044;7.472;2023-05-07T09:23:10;21.40;92.10
17887;DHT22;9069;52.044;7.472;2023-05-07T09:25:37;21.40;92.20
17887;DHT22;9069;52.044;7.472;2023-05-07T09:28:11;21.50;92.10
17887;DHT22;9069;52.044;7.472;2023-05-07T09:30:38;21.70;92.20
17887;DHT22;9069;52.044;7.472;2023-05-07T09:33:08;21.80;91.90
17887;DHT22;9069;52.044;7.472;2023-05-07T09:35:39;21.90;91.70
17887;DHT22;9069;52.044;7.472;2023-05-07T09:38:10;22.00;91.30
17887;DHT22;9069;52.044;7.472;2023-05-07T09:40:37;22.20;91.30
17887;DHT22;9069;52.044;7.472;2023-05-07T09:43:11;22.30;91.10
17887;DHT22;9069;52.044;7.472;2023-05-07T09:45:42;22.40;91.00
17887;DHT22;9069;52.044;7.472;2023-05-07T09:48:10;22.60;90.80
17887;DHT22;9069;52.044;7.472;2023-05-07T09:50:49;22.70;90.20
17887;DHT22;9069;52.044;7.472;2023-05-07T09:53:21;22.80;87.60
17887;DHT22;9069;52.044;7.472;2023-05-07T09:55:49;23.00;89.20
17887;DHT22;9069;52.044;7.472;2023-05-07T09:58:18;23.20;89.10
17887;DHT22;9069;52.044;7.472;2023-05-07T10:00:46;23.30;89.10
17887;DHT22;9069;52.044;7.472;2023-05-07T10:03:15;23.50;89.40
17887;DHT22;9069;52.044;7.472;2023-05-07T10:05:51;23.70;87.20
17887;DHT22;9069;52.044;7.472;2023-05-07T10:08:19;23.90;87.30
17887;DHT22;9069;52.044;7.472;2023-05-07T10:10:49;24.20;86.70
17887;DHT22;9069;52.044;7.472;2023-05-07T10:13:21;24.60;87.10
17887;DHT22;9069;52.044;7.472;2023-05-07T10:15:51;24.70;85.40
17887;DHT22;9069;52.044;7.472;2023-05-07T10:18:21;25.00;84.40
17887;DHT22;9069;52.044;7.472;2023-05-07T10:21:04;25.20;80.30
17887;DHT22;9069;52.044;7.472;2023-05-07T10:23:34;25.60;78.30
17887;DHT22;9069;52.044;7.472;2023-05-07T10:26:03;25.80;78.60
17887;DHT22;9069;52.044;7.472;2023-05-07T10:28:39;25.90;76.60
17887;DHT22;9069;52.044;7.472;2023-05-07T10:31:33;26.10;74.10
17887;DHT22;9069;52.044;7.472;2023-05-07T10:34:09;26.20;72.80
17887;DHT22;9069;52.044;7.472;2023-05-07T10:36:37;26.20;72.10
17887;DHT22;9069;52.044;7.472;2023-05-07T10:39:06;26.20;70.80
17887;DHT22;9069;52.044;7.472;2023-05-07T10:41:34;26.20;69.80
17887;DHT22;9069;52.044;7.472;2023-05-07T10:44:01;26.10;70.10
17887;DHT22;9069;52.044;7.472;2023-05-07T10:46:31;26.00;70.00
17887;DHT22;9069;52.044;7.472;2023-05-07T10:49:08;25.90;69.40
17887;DHT22;9069;52.044;7.472;2023-05-07T10:52:21;25.80;69.20
17887;DHT22;9069;52.044;7.472;2023-05-07T10:55:19;25.70;68.00
17887;DHT22;9069;52.044;7.472;2023-05-07T10:58:22;25.50;68.70
17887;DHT22;9069;52.044;7.472;2023-05-07T11:00:59;25.40;68.10
17887;DHT22;9069;52.044;7.472;2023-05-07T11:03:32;25.30;69.30
17887;DHT22;9069;52.044;7.472;2023-05-07T11:06:10;25.10;69.60
17887;DHT22;9069;52.044;7.472;2023-05-07T11:08:55;25.00;68.90
17887;DHT22;9069;52.044;7.472;2023-05-07T11:11:59;24.90;68.90
17887;DHT22;9069;52.044;7.472;2023-05-07T11:14:44;24.80;68.40
17887;DHT22;9069;52.044;7.472;2023-05-07T11:17:16;24.70;69.50
17887;DHT22;9069;52.044;7.472;2023-05-07T11:19:53;24.60;70.50
17887;DHT22;9069;52.044;7.472;2023-05-07T11:22:37;24.50;70.70
17887;DHT22;9069;52.044;7.472;2023-05-07T11:25:25;24.50;70.80
17887;DHT22;9069;52.044;7.472;2023-05-07T11:28:05;24.40;70.90
17887;DHT22;9069;52.044;7.472;2023-05-07T11:30:32;24.40;70.70
17887;DHT22;9069;52.044;7.472;2023-05-07T11:32:59;24.30;71.10
17887;DHT22;9069;52.044;7.472;2023-05-07T11:35:26;24.30;71.10
17887;DHT22;9069;52.044;7.472;2023-05-07T11:37:59;24.30;71.60
17887;DHT22;9069;52.044;7.472;2023-05-07T11:40:28;24.30;71.50
17887;DHT22;9069;52.044;7.472;2023-05-07T11:42:55;24.20;71.50
17887;DHT22;9069;52.044;7.472;2023-05-07T11:45:25;24.30;71.80
17887;DHT22;9069;52.044;7.472;2023-05-07T11:47:52;24.30;71.60
17887;DHT22;9069;52.044;7.472;2023-05-07T11:50:19;24.30;71.80
17887;DHT22;9069;52.044;7.472;2023-05-07T11:52:52;24.30;71.70
17887;DHT22;9069;52.044;7.472;2023-05-07T11:55:19;24.30;70.80
17887;DHT22;9069;52.044;7.472;2023-05-07T11:57:47;24.20;71.00
17887;DHT22;9069;52.044;7.472;2023-05-07T12:00:15;24.20;71.30
17887;DHT22;9069;52.044;7.472;2023-05-07T12:02:45;24.20;70.70
17887;DHT22;9069;52.044;7.472;2023-05-07T12:05:12;24.20;70.70
17887;DHT22;9069;52.044;7.472;2023-05-07T12:07:39;24.20;71.80
17887;DHT22;9069;52.044;7.472;2023-05-07T12:10:06;24.20;71.00
17887;DHT22;9069;52.044;7.472;2023-05-07T12:12:40;24.10;71.10
17887;DHT22;9069;52.044;7.472;2023-05-07T12:15:08;24.10;71.00
17887;DHT22;9069;52.044;7.472;2023-05-07T12:17:36;24.10;71.50
17887;DHT22;9069;52.044;7.472;2023-05-07T12:20:03;24.00;71.60
17887;DHT22;9069;52.044;7.472;2023-05-07T12:22:31;24.00;71.70
17887;DHT22;9069;52.044;7.472;2023-05-07T12:24:58;24.00;71.90
17887;DHT22;9069;52.044;7.472;2023-05-07T12:27:26;24.00;72.20
17887;DHT22;9069;52.044;7.472;2023-05-07T12:29:52;24.00;72.40
17887;DHT22;9069;52.044;7.472;2023-05-07T12:32:20;24.00;72.50
17887;DHT22;9069;52.044;7.472;2023-05-07T12:34:51;24.10;72.70
17887;DHT22;9069;52.044;7.472;2023-05-07T12:37:24;24.10;72.20
17887;DHT22;9069;52.044;7.472;2023-05-07T12:40:08;24.20;72.50
17887;DHT22;9069;52.044;7.472;2023-05-07T12:42:36;24.20;72.40
17887;DHT22;9069;52.044;7.472;2023-05-07T12:45:15;24.30;72.00
17887;DHT22;9069;52.044;7.472;2023-05-07T12:47:44;24.30;71.40
17887;DHT22;9069;52.044;7.472;2023-05-07T12:50:13;24.30;72.00
17887;DHT22;9069;52.044;7.472;2023-05-07T12:52:40;24.40;72.20
17887;DHT22;9069;52.044;7.472;2023-05-07T12:55:08;24.40;71.90
17887;DHT22;9069;52.044;7.472;2023-05-07T12:57:39;24.40;72.20
17887;DHT22;9069;52.044;7.472;2023-05-07T13:00:07;24.40;71.40
17887;DHT22;9069;52.044;7.472;2023-05-07T13:02:39;24.40;71.40
17887;DHT22;9069;52.044;7.472;2023-05-07T13:05:06;24.40;71.30
17887;DHT22;9069;52.044;7.472;2023-05-07T13:07:34;24.50;70.80
17887;DHT22;9069;52.044;7.472;2023-05-07T13:10:01;24.40;70.80
17887;DHT22;9069;52.044;7.472;2023-05-07T13:12:27;24.40;70.80
17887;DHT22;9069;52.044;7.472;2023-05-07T13:14:54;24.50;71.20
17887;DHT22;9069;52.044;7.472;2023-05-07T13:17:21;24.40;70.50
17887;DHT22;9069;52.044;7.472;2023-05-07T13:19:48;24.40;69.40
17887;DHT22;9069;52.044;7.472;2023-05-07T13:22:14;24.50;69.70
17887;DHT22;9069;52.044;7.472;2023-05-07T13:24:41;24.40;69.30
17887;DHT22;9069;52.044;7.472;2023-05-07T13:27:10;24.40;69.40
17887;DHT22;9069;52.044;7.472;2023-05-07T13:29:36;24.40;69.40
17887;DHT22;9069;52.044;7.472;2023-05-07T13:32:03;24.40;69.40
17887;DHT22;9069;52.044;7.472;2023-05-07T13:34:30;24.40;69.40
17887;DHT22;9069;52.044;7.472;2023-05-07T13:36:57;24.40;69.60
17887;DHT22;9069;52.044;7.472;2023-05-07T13:39:23;24.40;69.40
17887;DHT22;9069;52.044;7.472;2023-05-07T13:41:50;24.40;69.30
17887;DHT22;9069;52.044;7.472;2023-05-07T13:44:17;24.40;68.80
17887;DHT22;9069;52.044;7.472;2023-05-07T13:46:43;24.40;68.70
17887;DHT22;9069;52.044;7.472;2023-05-07T13:49:10;24.40;68.60
17887;DHT22;9069;52.044;7.472;2023-05-07T13:51:38;24.50;68.30
17887;DHT22;9069;52.044;7.472;2023-05-07T13:54:05;24.40;68.20
17887;DHT22;9069;52.044;7.472;2023-05-07T13:56:32;24.40;68.10
17887;DHT22;9069;52.044;7.472;2023-05-07T13:58:59;24.40;68.10
17887;DHT22;9069;52.044;7.472;2023-05-07T14:01:27;24.40;68.10
17887;DHT22;9069;52.044;7.472;2023-05-07T14:03:55;24.40;67.70
17887;DHT22;9069;52.044;7.472;2023-05-07T14:06:21;24.30;67.70
17887;DHT22;9069;52.044;7.472;2023-05-07T14:08:48;24.30;67.60
17887;DHT22;9069;52.044;7.472;2023-05-07T14:11:15;24.30;67.30
17887;DHT22;9069;52.044;7.472;2023-05-07T14:13:42;24.30;67.50
17887;DHT22;9069;52.044;7.472;2023-05-07T14:16:09;24.30;68.00
17887;DHT22;9069;52.044;7.472;2023-05-07T14:18:35;24.30;68.30
17887;DHT22;9069;52.044;7.472;2023-05-07T14:21:04;24.30;68.70
17887;DHT22;9069;52.044;7.472;2023-05-07T14:23:32;24.30;68.30
17887;DHT22;9069;52.044;7.472;2023-05-07T14:25:59;24.30;68.20
17887;DHT22;9069;52.044;7.472;2023-05-07T14:28:26;24.30;68.30
17887;DHT22;9069;52.044;7.472;2023-05-07T14:30:52;24.40;68.70
17887;DHT22;9069;52.044;7.472;2023-05-07T14:33:19;24.30;68.60
17887;DHT22;9069;52.044;7.472;2023-05-07T14:35:46;24.40;68.40
17887;DHT22;9069;52.044;7.472;2023-05-07T14:38:15;24.40;68.10
17887;DHT22;9069;52.044;7.472;2023-05-07T14:40:42;24.40;68.10
17887;DHT22;9069;52.044;7.472;2023-05-07T14:43:09;24.40;67.80
17887;DHT22;9069;52.044;7.472;2023-05-07T14:45:35;24.40;67.90
17887;DHT22;9069;52.044;7.472;2023-05-07T14:48:02;24.40;67.70
17887;DHT22;9069;52.044;7.472;2023-05-07T14:50:29;24.50;67.80
17887;DHT22;9069;52.044;7.472;2023-05-07T14:52:56;24.50;67.70
17887;DHT22;9069;52.044;7.472;2023-05-07T14:55:23;24.50;67.70
17887;DHT22;9069;52.044;7.472;2023-05-07T14:57:49;24.60;67.70
17887;DHT22;9069;52.044;7.472;2023-05-07T15:00:16;24.50;67.70
17887;DHT22;9069;52.044;7.472;2023-05-07T15:02:43;24.40;67.70
17887;DHT22;9069;52.044;7.472;2023-05-07T15:05:10;24.50;68.20
17887;DHT22;9069;52.044;7.472;2023-05-07T15:07:37;24.50;68.30
17887;DHT22;9069;52.044;7.472;2023-05-07T15:10:04;24.40;68.60
17887;DHT22;9069;52.044;7.472;2023-05-07T15:12:31;24.40;68.80
17887;DHT22;9069;52.044;7.472;2023-05-07T15:14:57;24.40;68.90
17887;DHT22;9069;52.044;7.472;2023-05-07T15:17:24;24.30;69.20
17887;DHT22;9069;52.044;7.472;2023-05-07T15:19:51;24.30;69.60
17887;DHT22;9069;52.044;7.472;2023-05-07T15:22:20;24.30;69.40
17887;DHT22;9069;52.044;7.472;2023-05-07T15:24:48;24.20;69.50
17887;DHT22;9069;52.044;7.472;2023-05-07T15:27:14;24.20;69.70
17887;DHT22;9069;52.044;7.472;2023-05-07T15:29:43;24.10;69.60
17887;DHT22;9069;52.044;7.472;2023-05-07T15:32:10;24.10;69.70
17887;DHT22;9069;52.044;7.472;2023-05-07T15:34:37;24.00;69.70
17887;DHT22;9069;52.044;7.472;2023-05-07T15:37:03;24.00;69.70
17887;DHT22;9069;52.044;7.472;2023-05-07T15:39:30;23.90;69.50
17887;DHT22;9069;52.044;7.472;2023-05-07T15:41:57;23.90;69.60
17887;DHT22;9069;52.044;7.472;2023-05-07T15:44:24;23.90;69.50
17887;DHT22;9069;52.044;7.472;2023-05-07T15:46:55;23.80;69.60
17887;DHT22;9069;52.044;7.472;2023-05-07T15:49:21;23.70;69.60
17887;DHT22;9069;52.044;7.472;2023-05-07T15:51:48;23.70;70.00
17887;DHT22;9069;52.044;7.472;2023-05-07T15:54:17;23.60;70.30
17887;DHT22;9069;52.044;7.472;2023-05-07T15:56:46;23.50;70.60